This is the latest recevied weather packets stored in our database for station/object DH1FR-13. If no packets are shown the sender has not sent any weather packets the latest 10 day(s).
| Time | Temp. | Humidity | Pressure | Rain* | Wind** | Luminosity | Snow |
|---|---|---|---|---|---|---|---|
| 1787917801 | 22.22° C | 83% | 1013.8 hPa | 3.05 mm | 0 m/s | - | - |
| 1787917201 | 22.22° C | 86% | 1013.6 hPa | 3.05 mm | 0 m/s | - | - |
| 1787916601 | 21.67° C | 87% | 1013.5 hPa | 3.05 mm | 0 m/s | - | - |
| 1787916001 | 21.67° C | 86% | 1013.5 hPa | 3.05 mm | 0 m/s | - | - |
| 1787915401 | 21.67° C | 86% | 1013.6 hPa | 3.05 mm | 0 m/s | - | - |
| 1787914800 | 22.22° C | 85% | 1013.7 hPa | 3.05 mm | 0 m/s | - | - |
| 1787914200 | 22.78° C | 84% | 1013.4 hPa | 3.05 mm | 0 m/s | - | - |
| 1787913602 | 22.22° C | 86% | 1013.4 hPa | 3.05 mm | 0 m/s | - | - |
| 1787913001 | 22.22° C | 86% | 1014 hPa | 3.05 mm | 0 m/s | - | - |
| 1787912400 | 21.67° C | 86% | 1013.9 hPa | 3.05 mm | 0 m/s | - | - |
| 1787911800 | 22.22° C | 84% | 1013.7 hPa | 3.05 mm | 0 m/s | - | - |
| 1787911201 | 22.78° C | 85% | 1013.5 hPa | 3.05 mm | 0 m/s | - | - |
| 1787910601 | 21.67° C | 87% | 1013.2 hPa | 3.05 mm | 0 m/s | - | - |
| 1787910000 | 21.67° C | 88% | 1013.5 hPa | 3.05 mm | 0 m/s | - | - |
| 1787909400 | 22.22° C | 87% | 1013.4 hPa | 3.05 mm | 0 m/s | - | - |
| 1787908800 | 22.22° C | 87% | 1012.8 hPa | 3.05 mm | 0 m/s | - | - |
| 1787908201 | 21.67° C | 88% | 1013.1 hPa | 3.05 mm | 0 m/s | - | - |
| 1787907600 | 21.67° C | 87% | 1013 hPa | 3.05 mm | 0 m/s | - | - |
| 1787907001 | 21.67° C | 89% | 1013.1 hPa | 3.05 mm | 0 m/s | - | - |
| 1787906401 | 21.11° C | 89% | 1013 hPa | 3.05 mm | 0 m/s | - | - |
| 1787905800 | 21.11° C | 89% | 1013.3 hPa | 3.05 mm | 0 m/s | - | - |
| 1787905201 | 21.11° C | 89% | 1013.7 hPa | 3.05 mm | 0 m/s | - | - |
| 1787904600 | 21.67° C | 88% | 1014.2 hPa | 3.05 mm | 0 m/s | - | - |
| 1787904000 | 21.67° C | 89% | 1013.7 hPa | 3.05 mm | 0 m/s | - | - |
| 1787903400 | 21.11° C | 91% | 1013.4 hPa | 3.05 mm | 0 m/s | - | - |
* Rain latest hour (hover to see other rain measurements)
** Current wind speed in m/s (hover to see current wind gust speed)